sensor_id;sensor_type;location;lat;lon;timestamp;temperature;humidity
8778;DHT22;4425;50.872;4.712;2024-03-07T00:00:10;6.10;99.90
8778;DHT22;4425;50.872;4.712;2024-03-07T00:02:45;6.20;99.90
8778;DHT22;4425;50.872;4.712;2024-03-07T00:05:13;6.10;99.90
8778;DHT22;4425;50.872;4.712;2024-03-07T00:07:40;6.20;99.90
8778;DHT22;4425;50.872;4.712;2024-03-07T00:10:08;6.20;99.90
8778;DHT22;4425;50.872;4.712;2024-03-07T00:12:36;6.20;99.90
8778;DHT22;4425;50.872;4.712;2024-03-07T00:15:06;6.20;99.90
8778;DHT22;4425;50.872;4.712;2024-03-07T00:17:38;6.20;99.90
8778;DHT22;4425;50.872;4.712;2024-03-07T00:20:08;6.20;99.90
8778;DHT22;4425;50.872;4.712;2024-03-07T00:22:39;6.30;99.90
8778;DHT22;4425;50.872;4.712;2024-03-07T00:25:07;6.30;99.90
8778;DHT22;4425;50.872;4.712;2024-03-07T00:27:35;6.20;99.90
8778;DHT22;4425;50.872;4.712;2024-03-07T00:30:03;6.20;99.90
8778;DHT22;4425;50.872;4.712;2024-03-07T00:32:30;6.20;99.90
8778;DHT22;4425;50.872;4.712;2024-03-07T00:35:01;6.20;99.90
8778;DHT22;4425;50.872;4.712;2024-03-07T00:37:30;6.20;99.90
8778;DHT22;4425;50.872;4.712;2024-03-07T00:40:03;6.20;99.90
8778;DHT22;4425;50.872;4.712;2024-03-07T00:42:33;6.10;99.90
8778;DHT22;4425;50.872;4.712;2024-03-07T00:45:01;6.10;99.90
8778;DHT22;4425;50.872;4.712;2024-03-07T00:47:29;6.00;99.90
8778;DHT22;4425;50.872;4.712;2024-03-07T00:49:59;6.10;99.90
8778;DHT22;4425;50.872;4.712;2024-03-07T00:52:26;6.00;99.90
8778;DHT22;4425;50.872;4.712;2024-03-07T00:54:54;6.00;99.90
8778;DHT22;4425;50.872;4.712;2024-03-07T00:57:21;5.90;99.90
8778;DHT22;4425;50.872;4.712;2024-03-07T00:59:48;5.90;99.90
8778;DHT22;4425;50.872;4.712;2024-03-07T01:02:16;5.90;99.90
8778;DHT22;4425;50.872;4.712;2024-03-07T01:04:44;5.80;99.90
8778;DHT22;4425;50.872;4.712;2024-03-07T01:07:16;5.80;99.90
8778;DHT22;4425;50.872;4.712;2024-03-07T01:09:44;5.80;99.90
8778;DHT22;4425;50.872;4.712;2024-03-07T01:12:28;5.70;99.90
8778;DHT22;4425;50.872;4.712;2024-03-07T01:14:58;5.60;99.90
8778;DHT22;4425;50.872;4.712;2024-03-07T01:17:31;5.60;99.90
8778;DHT22;4425;50.872;4.712;2024-03-07T01:20:00;5.60;99.90
8778;DHT22;4425;50.872;4.712;2024-03-07T01:22:30;5.60;99.90
8778;DHT22;4425;50.872;4.712;2024-03-07T01:25:05;5.60;99.90
8778;DHT22;4425;50.872;4.712;2024-03-07T01:27:44;5.60;99.90
8778;DHT22;4425;50.872;4.712;2024-03-07T01:30:17;5.60;99.90
8778;DHT22;4425;50.872;4.712;2024-03-07T01:32:45;5.60;99.90
8778;DHT22;4425;50.872;4.712;2024-03-07T01:35:13;5.50;99.90
8778;DHT22;4425;50.872;4.712;2024-03-07T01:37:41;5.50;99.90
8778;DHT22;4425;50.872;4.712;2024-03-07T01:40:09;5.60;99.90
8778;DHT22;4425;50.872;4.712;2024-03-07T01:42:38;5.50;99.90
8778;DHT22;4425;50.872;4.712;2024-03-07T01:45:12;5.50;99.90
8778;DHT22;4425;50.872;4.712;2024-03-07T01:47:41;5.50;99.90
8778;DHT22;4425;50.872;4.712;2024-03-07T01:50:08;5.40;99.90
8778;DHT22;4425;50.872;4.712;2024-03-07T01:52:40;5.40;99.90
8778;DHT22;4425;50.872;4.712;2024-03-07T01:55:08;5.30;99.90
8778;DHT22;4425;50.872;4.712;2024-03-07T01:57:38;5.30;99.90
8778;DHT22;4425;50.872;4.712;2024-03-07T02:00:24;5.40;99.90
8778;DHT22;4425;50.872;4.712;2024-03-07T02:02:52;5.40;99.90
8778;DHT22;4425;50.872;4.712;2024-03-07T02:05:20;5.40;99.90
8778;DHT22;4425;50.872;4.712;2024-03-07T02:07:48;5.40;99.90
8778;DHT22;4425;50.872;4.712;2024-03-07T02:10:15;5.40;99.90
8778;DHT22;4425;50.872;4.712;2024-03-07T02:12:47;5.40;99.90
8778;DHT22;4425;50.872;4.712;2024-03-07T02:15:14;5.40;99.90
8778;DHT22;4425;50.872;4.712;2024-03-07T02:17:42;5.30;99.90
8778;DHT22;4425;50.872;4.712;2024-03-07T02:20:11;5.30;99.90
8778;DHT22;4425;50.872;4.712;2024-03-07T02:22:45;5.30;99.90
8778;DHT22;4425;50.872;4.712;2024-03-07T02:25:14;5.30;99.90
8778;DHT22;4425;50.872;4.712;2024-03-07T02:27:45;5.20;99.90
8778;DHT22;4425;50.872;4.712;2024-03-07T02:30:14;5.20;99.90
8778;DHT22;4425;50.872;4.712;2024-03-07T02:32:42;5.20;99.90
8778;DHT22;4425;50.872;4.712;2024-03-07T02:35:14;5.20;99.90
8778;DHT22;4425;50.872;4.712;2024-03-07T02:37:44;5.20;99.90
8778;DHT22;4425;50.872;4.712;2024-03-07T02:40:14;5.20;99.90
8778;DHT22;4425;50.872;4.712;2024-03-07T02:42:44;5.20;99.90
8778;DHT22;4425;50.872;4.712;2024-03-07T02:45:12;5.20;99.90
8778;DHT22;4425;50.872;4.712;2024-03-07T02:47:41;5.20;99.90
8778;DHT22;4425;50.872;4.712;2024-03-07T02:50:10;5.20;99.90
8778;DHT22;4425;50.872;4.712;2024-03-07T02:52:39;5.20;99.90
8778;DHT22;4425;50.872;4.712;2024-03-07T02:55:08;5.20;99.90
8778;DHT22;4425;50.872;4.712;2024-03-07T02:57:46;5.20;99.90
8778;DHT22;4425;50.872;4.712;2024-03-07T03:00:13;5.20;99.90
8778;DHT22;4425;50.872;4.712;2024-03-07T03:02:47;5.10;99.90
8778;DHT22;4425;50.872;4.712;2024-03-07T03:05:14;5.10;99.90
8778;DHT22;4425;50.872;4.712;2024-03-07T03:07:42;5.10;99.90
8778;DHT22;4425;50.872;4.712;2024-03-07T03:10:20;5.00;99.90
8778;DHT22;4425;50.872;4.712;2024-03-07T03:12:51;5.00;99.90
8778;DHT22;4425;50.872;4.712;2024-03-07T03:15:23;5.00;99.90
8778;DHT22;4425;50.872;4.712;2024-03-07T03:17:50;5.00;99.90
8778;DHT22;4425;50.872;4.712;2024-03-07T03:20:17;5.00;99.90
8778;DHT22;4425;50.872;4.712;2024-03-07T03:22:54;4.90;99.90
8778;DHT22;4425;50.872;4.712;2024-03-07T03:25:23;5.00;99.90
8778;DHT22;4425;50.872;4.712;2024-03-07T03:27:50;5.00;99.90
8778;DHT22;4425;50.872;4.712;2024-03-07T03:30:17;5.00;99.90
8778;DHT22;4425;50.872;4.712;2024-03-07T03:32:46;4.90;99.90
8778;DHT22;4425;50.872;4.712;2024-03-07T03:35:17;4.90;99.90
8778;DHT22;4425;50.872;4.712;2024-03-07T03:37:46;4.90;99.90
8778;DHT22;4425;50.872;4.712;2024-03-07T03:40:30;4.90;99.90
8778;DHT22;4425;50.872;4.712;2024-03-07T03:42:59;4.90;99.90
8778;DHT22;4425;50.872;4.712;2024-03-07T03:45:28;4.90;99.90
8778;DHT22;4425;50.872;4.712;2024-03-07T03:47:57;4.80;99.90
8778;DHT22;4425;50.872;4.712;2024-03-07T03:50:26;4.80;99.90
8778;DHT22;4425;50.872;4.712;2024-03-07T03:52:55;4.80;99.90
8778;DHT22;4425;50.872;4.712;2024-03-07T03:55:24;4.80;99.90
8778;DHT22;4425;50.872;4.712;2024-03-07T03:57:51;4.80;99.90
8778;DHT22;4425;50.872;4.712;2024-03-07T04:00:19;4.80;99.90
8778;DHT22;4425;50.872;4.712;2024-03-07T04:02:49;4.80;99.90
8778;DHT22;4425;50.872;4.712;2024-03-07T04:05:18;4.70;99.90
8778;DHT22;4425;50.872;4.712;2024-03-07T04:07:48;4.80;99.90
8778;DHT22;4425;50.872;4.712;2024-03-07T04:10:16;4.70;99.90
8778;DHT22;4425;50.872;4.712;2024-03-07T04:12:45;4.70;99.90
8778;DHT22;4425;50.872;4.712;2024-03-07T04:15:13;4.70;99.90
8778;DHT22;4425;50.872;4.712;2024-03-07T04:17:42;4.70;99.90
8778;DHT22;4425;50.872;4.712;2024-03-07T04:20:10;4.70;99.90
8778;DHT22;4425;50.872;4.712;2024-03-07T04:22:38;4.70;99.90
8778;DHT22;4425;50.872;4.712;2024-03-07T04:25:06;4.70;99.90
8778;DHT22;4425;50.872;4.712;2024-03-07T04:27:34;4.70;99.90
8778;DHT22;4425;50.872;4.712;2024-03-07T04:30:07;4.70;99.90
8778;DHT22;4425;50.872;4.712;2024-03-07T04:32:36;4.60;99.90
8778;DHT22;4425;50.872;4.712;2024-03-07T04:35:04;4.60;99.90
8778;DHT22;4425;50.872;4.712;2024-03-07T04:37:40;4.60;99.90
8778;DHT22;4425;50.872;4.712;2024-03-07T04:40:14;4.60;99.90
8778;DHT22;4425;50.872;4.712;2024-03-07T04:42:52;4.60;99.90
8778;DHT22;4425;50.872;4.712;2024-03-07T04:45:31;4.60;99.90
8778;DHT22;4425;50.872;4.712;2024-03-07T04:48:11;4.50;99.90
8778;DHT22;4425;50.872;4.712;2024-03-07T04:50:38;4.50;99.90
8778;DHT22;4425;50.872;4.712;2024-03-07T04:53:05;4.50;99.90
8778;DHT22;4425;50.872;4.712;2024-03-07T04:55:36;4.50;99.90
8778;DHT22;4425;50.872;4.712;2024-03-07T04:58:16;4.50;99.90
8778;DHT22;4425;50.872;4.712;2024-03-07T05:00:46;4.60;99.90
8778;DHT22;4425;50.872;4.712;2024-03-07T05:03:13;4.50;99.90
8778;DHT22;4425;50.872;4.712;2024-03-07T05:05:43;4.50;99.90
8778;DHT22;4425;50.872;4.712;2024-03-07T05:08:12;4.50;99.90
8778;DHT22;4425;50.872;4.712;2024-03-07T05:10:40;4.40;99.90
8778;DHT22;4425;50.872;4.712;2024-03-07T05:13:08;4.40;99.90
8778;DHT22;4425;50.872;4.712;2024-03-07T05:15:36;4.40;99.90
8778;DHT22;4425;50.872;4.712;2024-03-07T05:18:06;4.40;99.90
8778;DHT22;4425;50.872;4.712;2024-03-07T05:20:33;4.50;99.90
8778;DHT22;4425;50.872;4.712;2024-03-07T05:23:04;4.40;99.90
8778;DHT22;4425;50.872;4.712;2024-03-07T05:25:31;4.40;99.90
8778;DHT22;4425;50.872;4.712;2024-03-07T05:27:59;4.40;99.90
8778;DHT22;4425;50.872;4.712;2024-03-07T05:30:28;4.40;99.90
8778;DHT22;4425;50.872;4.712;2024-03-07T05:32:58;4.40;99.90
8778;DHT22;4425;50.872;4.712;2024-03-07T05:35:28;4.40;99.90
8778;DHT22;4425;50.872;4.712;2024-03-07T05:37:56;4.40;99.90
8778;DHT22;4425;50.872;4.712;2024-03-07T05:40:23;4.40;99.90
8778;DHT22;4425;50.872;4.712;2024-03-07T05:42:52;4.40;99.90
8778;DHT22;4425;50.872;4.712;2024-03-07T05:45:20;4.40;99.90
8778;DHT22;4425;50.872;4.712;2024-03-07T05:47:49;4.40;99.90
8778;DHT22;4425;50.872;4.712;2024-03-07T05:50:19;4.40;99.90
8778;DHT22;4425;50.872;4.712;2024-03-07T05:52:50;4.40;99.90
8778;DHT22;4425;50.872;4.712;2024-03-07T05:55:17;4.50;99.90
8778;DHT22;4425;50.872;4.712;2024-03-07T05:57:44;4.50;99.90
8778;DHT22;4425;50.872;4.712;2024-03-07T06:00:23;4.60;99.90
8778;DHT22;4425;50.872;4.712;2024-03-07T06:02:55;4.60;99.90
8778;DHT22;4425;50.872;4.712;2024-03-07T06:05:24;4.60;99.90
8778;DHT22;4425;50.872;4.712;2024-03-07T06:07:55;4.70;99.90
8778;DHT22;4425;50.872;4.712;2024-03-07T06:10:23;4.70;99.90
8778;DHT22;4425;50.872;4.712;2024-03-07T06:12:54;4.70;99.90
8778;DHT22;4425;50.872;4.712;2024-03-07T06:15:24;4.70;99.90
8778;DHT22;4425;50.872;4.712;2024-03-07T06:18:04;4.70;99.90
8778;DHT22;4425;50.872;4.712;2024-03-07T06:20:32;4.70;99.90
8778;DHT22;4425;50.872;4.712;2024-03-07T06:23:04;4.60;99.90
8778;DHT22;4425;50.872;4.712;2024-03-07T06:25:35;4.70;99.90
8778;DHT22;4425;50.872;4.712;2024-03-07T06:28:17;4.70;99.90
8778;DHT22;4425;50.872;4.712;2024-03-07T06:30:45;4.70;99.90
8778;DHT22;4425;50.872;4.712;2024-03-07T06:33:14;4.70;99.90
8778;DHT22;4425;50.872;4.712;2024-03-07T06:35:42;4.70;99.90
8778;DHT22;4425;50.872;4.712;2024-03-07T06:38:18;4.70;99.90
8778;DHT22;4425;50.872;4.712;2024-03-07T06:40:46;4.70;99.90
8778;DHT22;4425;50.872;4.712;2024-03-07T06:43:16;4.70;99.90
8778;DHT22;4425;50.872;4.712;2024-03-07T06:45:43;4.60;99.90
8778;DHT22;4425;50.872;4.712;2024-03-07T06:48:16;4.60;99.90
8778;DHT22;4425;50.872;4.712;2024-03-07T06:50:43;4.60;99.90
8778;DHT22;4425;50.872;4.712;2024-03-07T06:53:16;4.60;99.90
8778;DHT22;4425;50.872;4.712;2024-03-07T06:55:45;4.70;99.90
8778;DHT22;4425;50.872;4.712;2024-03-07T06:58:16;4.70;99.90
8778;DHT22;4425;50.872;4.712;2024-03-07T07:00:43;4.80;99.90
8778;DHT22;4425;50.872;4.712;2024-03-07T07:03:35;4.80;99.90
8778;DHT22;4425;50.872;4.712;2024-03-07T07:06:03;4.80;99.90
8778;DHT22;4425;50.872;4.712;2024-03-07T07:08:33;4.80;99.90
8778;DHT22;4425;50.872;4.712;2024-03-07T07:11:00;4.80;99.90
8778;DHT22;4425;50.872;4.712;2024-03-07T07:13:29;4.80;99.90
8778;DHT22;4425;50.872;4.712;2024-03-07T07:15:57;4.80;99.90
8778;DHT22;4425;50.872;4.712;2024-03-07T07:18:24;4.80;99.90
8778;DHT22;4425;50.872;4.712;2024-03-07T07:20:51;4.90;99.90
8778;DHT22;4425;50.872;4.712;2024-03-07T07:23:20;5.00;99.90
8778;DHT22;4425;50.872;4.712;2024-03-07T07:25:48;5.00;99.90
8778;DHT22;4425;50.872;4.712;2024-03-07T07:28:15;5.00;99.90
8778;DHT22;4425;50.872;4.712;2024-03-07T07:30:43;5.10;99.90
8778;DHT22;4425;50.872;4.712;2024-03-07T07:33:10;5.10;99.90
8778;DHT22;4425;50.872;4.712;2024-03-07T07:35:40;5.10;99.90
8778;DHT22;4425;50.872;4.712;2024-03-07T07:38:07;5.10;99.90
8778;DHT22;4425;50.872;4.712;2024-03-07T07:40:36;5.20;99.90
8778;DHT22;4425;50.872;4.712;2024-03-07T07:43:04;5.30;99.90
8778;DHT22;4425;50.872;4.712;2024-03-07T07:45:31;5.40;99.90
8778;DHT22;4425;50.872;4.712;2024-03-07T07:48:07;5.50;99.90
8778;DHT22;4425;50.872;4.712;2024-03-07T07:50:37;5.60;99.90
8778;DHT22;4425;50.872;4.712;2024-03-07T07:53:04;5.60;99.90
8778;DHT22;4425;50.872;4.712;2024-03-07T07:55:34;5.70;99.90
8778;DHT22;4425;50.872;4.712;2024-03-07T07:58:01;5.70;99.90
8778;DHT22;4425;50.872;4.712;2024-03-07T08:00:31;5.70;99.90
8778;DHT22;4425;50.872;4.712;2024-03-07T08:03:00;5.70;99.90
8778;DHT22;4425;50.872;4.712;2024-03-07T08:05:31;5.80;99.90
8778;DHT22;4425;50.872;4.712;2024-03-07T08:08:00;5.70;99.90
8778;DHT22;4425;50.872;4.712;2024-03-07T08:10:30;5.80;99.90
8778;DHT22;4425;50.872;4.712;2024-03-07T08:13:01;5.80;99.90
8778;DHT22;4425;50.872;4.712;2024-03-07T08:15:30;5.90;99.90
8778;DHT22;4425;50.872;4.712;2024-03-07T08:17:58;5.90;99.90
8778;DHT22;4425;50.872;4.712;2024-03-07T08:20:39;6.00;99.90
8778;DHT22;4425;50.872;4.712;2024-03-07T08:23:08;6.00;99.90
8778;DHT22;4425;50.872;4.712;2024-03-07T08:25:35;6.10;99.90
8778;DHT22;4425;50.872;4.712;2024-03-07T08:28:05;6.10;99.90
8778;DHT22;4425;50.872;4.712;2024-03-07T08:30:35;6.20;99.90
8778;DHT22;4425;50.872;4.712;2024-03-07T08:33:02;6.20;99.90
8778;DHT22;4425;50.872;4.712;2024-03-07T08:35:34;6.40;99.90
8778;DHT22;4425;50.872;4.712;2024-03-07T08:38:01;6.70;99.90
8778;DHT22;4425;50.872;4.712;2024-03-07T08:40:29;6.80;99.90
8778;DHT22;4425;50.872;4.712;2024-03-07T08:42:58;6.80;99.90
8778;DHT22;4425;50.872;4.712;2024-03-07T08:45:26;6.70;99.90
8778;DHT22;4425;50.872;4.712;2024-03-07T08:47:56;6.80;99.90
8778;DHT22;4425;50.872;4.712;2024-03-07T08:50:24;6.70;99.90
8778;DHT22;4425;50.872;4.712;2024-03-07T08:52:53;6.80;99.90
8778;DHT22;4425;50.872;4.712;2024-03-07T08:55:26;7.00;99.90
8778;DHT22;4425;50.872;4.712;2024-03-07T08:57:56;6.90;99.90
8778;DHT22;4425;50.872;4.712;2024-03-07T09:00:24;7.10;99.90
8778;DHT22;4425;50.872;4.712;2024-03-07T09:02:53;7.20;99.90
8778;DHT22;4425;50.872;4.712;2024-03-07T09:05:35;7.30;99.90
8778;DHT22;4425;50.872;4.712;2024-03-07T09:08:03;7.40;99.90
8778;DHT22;4425;50.872;4.712;2024-03-07T09:10:31;7.50;99.90
8778;DHT22;4425;50.872;4.712;2024-03-07T09:12:58;7.50;99.90
8778;DHT22;4425;50.872;4.712;2024-03-07T09:15:25;7.60;99.90
8778;DHT22;4425;50.872;4.712;2024-03-07T09:17:53;7.70;99.90
8778;DHT22;4425;50.872;4.712;2024-03-07T09:20:24;7.70;99.90
8778;DHT22;4425;50.872;4.712;2024-03-07T09:22:58;7.80;99.90
8778;DHT22;4425;50.872;4.712;2024-03-07T09:25:26;7.90;99.90
8778;DHT22;4425;50.872;4.712;2024-03-07T09:27:53;8.00;99.90
8778;DHT22;4425;50.872;4.712;2024-03-07T09:30:23;8.30;99.90
8778;DHT22;4425;50.872;4.712;2024-03-07T09:32:53;8.20;99.90
8778;DHT22;4425;50.872;4.712;2024-03-07T09:35:20;8.40;99.90
8778;DHT22;4425;50.872;4.712;2024-03-07T09:37:47;8.60;99.90
8778;DHT22;4425;50.872;4.712;2024-03-07T09:40:23;8.60;99.90
8778;DHT22;4425;50.872;4.712;2024-03-07T09:42:51;8.30;99.90
8778;DHT22;4425;50.872;4.712;2024-03-07T09:45:20;8.30;99.90
8778;DHT22;4425;50.872;4.712;2024-03-07T09:47:49;8.30;99.90
8778;DHT22;4425;50.872;4.712;2024-03-07T09:50:19;8.40;99.90
8778;DHT22;4425;50.872;4.712;2024-03-07T09:52:48;8.50;99.90
8778;DHT22;4425;50.872;4.712;2024-03-07T09:55:19;8.70;99.90
8778;DHT22;4425;50.872;4.712;2024-03-07T09:57:47;8.90;99.90
8778;DHT22;4425;50.872;4.712;2024-03-07T10:00:24;9.00;99.90
8778;DHT22;4425;50.872;4.712;2024-03-07T10:03:05;9.00;99.90
8778;DHT22;4425;50.872;4.712;2024-03-07T10:05:36;9.00;99.90
8778;DHT22;4425;50.872;4.712;2024-03-07T10:08:04;9.00;99.90
8778;DHT22;4425;50.872;4.712;2024-03-07T10:10:34;9.20;99.90
8778;DHT22;4425;50.872;4.712;2024-03-07T10:13:02;9.30;99.90
8778;DHT22;4425;50.872;4.712;2024-03-07T10:15:32;9.40;99.90
8778;DHT22;4425;50.872;4.712;2024-03-07T10:18:00;9.50;99.90
8778;DHT22;4425;50.872;4.712;2024-03-07T10:20:27;9.50;99.90
8778;DHT22;4425;50.872;4.712;2024-03-07T10:22:54;9.50;99.90
8778;DHT22;4425;50.872;4.712;2024-03-07T10:25:22;9.60;99.90
8778;DHT22;4425;50.872;4.712;2024-03-07T10:27:53;9.60;99.90
8778;DHT22;4425;50.872;4.712;2024-03-07T10:30:20;9.80;99.90
8778;DHT22;4425;50.872;4.712;2024-03-07T10:32:49;9.80;99.90
8778;DHT22;4425;50.872;4.712;2024-03-07T10:35:21;9.80;99.90
8778;DHT22;4425;50.872;4.712;2024-03-07T10:37:50;9.80;99.90
8778;DHT22;4425;50.872;4.712;2024-03-07T10:40:19;9.80;99.90
8778;DHT22;4425;50.872;4.712;2024-03-07T10:42:48;10.00;99.90
8778;DHT22;4425;50.872;4.712;2024-03-07T10:45:20;10.00;99.90
8778;DHT22;4425;50.872;4.712;2024-03-07T10:47:53;10.00;99.90
8778;DHT22;4425;50.872;4.712;2024-03-07T10:50:31;10.10;99.90
8778;DHT22;4425;50.872;4.712;2024-03-07T10:53:09;10.10;99.90
8778;DHT22;4425;50.872;4.712;2024-03-07T10:55:48;10.20;99.90
8778;DHT22;4425;50.872;4.712;2024-03-07T10:58:27;10.30;99.90
8778;DHT22;4425;50.872;4.712;2024-03-07T11:01:01;10.30;99.90
8778;DHT22;4425;50.872;4.712;2024-03-07T11:03:31;10.20;99.90
8778;DHT22;4425;50.872;4.712;2024-03-07T11:06:01;10.30;99.90
8778;DHT22;4425;50.872;4.712;2024-03-07T11:08:33;10.10;99.90
8778;DHT22;4425;50.872;4.712;2024-03-07T11:11:01;10.10;99.90
8778;DHT22;4425;50.872;4.712;2024-03-07T11:13:30;10.00;99.90
8778;DHT22;4425;50.872;4.712;2024-03-07T11:16:00;10.00;99.90
8778;DHT22;4425;50.872;4.712;2024-03-07T11:18:28;9.90;99.90
8778;DHT22;4425;50.872;4.712;2024-03-07T11:20:56;9.90;99.90
8778;DHT22;4425;50.872;4.712;2024-03-07T11:23:27;9.80;99.90
8778;DHT22;4425;50.872;4.712;2024-03-07T11:26:01;9.90;99.90
8778;DHT22;4425;50.872;4.712;2024-03-07T11:28:33;10.00;99.90
8778;DHT22;4425;50.872;4.712;2024-03-07T11:31:13;9.90;99.90
8778;DHT22;4425;50.872;4.712;2024-03-07T11:33:41;9.90;99.90
8778;DHT22;4425;50.872;4.712;2024-03-07T11:36:10;9.90;99.90
8778;DHT22;4425;50.872;4.712;2024-03-07T11:38:38;10.00;99.90
8778;DHT22;4425;50.872;4.712;2024-03-07T11:41:05;9.90;99.90
8778;DHT22;4425;50.872;4.712;2024-03-07T11:43:34;9.90;99.90
8778;DHT22;4425;50.872;4.712;2024-03-07T11:46:02;9.90;99.90
8778;DHT22;4425;50.872;4.712;2024-03-07T11:48:40;9.90;99.90
8778;DHT22;4425;50.872;4.712;2024-03-07T11:51:17;10.00;99.90
8778;DHT22;4425;50.872;4.712;2024-03-07T11:53:51;10.10;99.90
8778;DHT22;4425;50.872;4.712;2024-03-07T11:56:19;10.20;99.90
8778;DHT22;4425;50.872;4.712;2024-03-07T11:58:46;10.50;99.90
8778;DHT22;4425;50.872;4.712;2024-03-07T12:01:21;10.60;99.90
8778;DHT22;4425;50.872;4.712;2024-03-07T12:03:52;10.40;99.90
8778;DHT22;4425;50.872;4.712;2024-03-07T12:06:19;10.50;99.90
8778;DHT22;4425;50.872;4.712;2024-03-07T12:08:47;10.20;99.90
8778;DHT22;4425;50.872;4.712;2024-03-07T12:11:15;10.10;99.90
8778;DHT22;4425;50.872;4.712;2024-03-07T12:13:43;10.20;99.90
8778;DHT22;4425;50.872;4.712;2024-03-07T12:16:11;10.30;99.90
8778;DHT22;4425;50.872;4.712;2024-03-07T12:18:38;10.40;99.90
8778;DHT22;4425;50.872;4.712;2024-03-07T12:21:10;10.40;99.90
8778;DHT22;4425;50.872;4.712;2024-03-07T12:23:38;10.50;99.90
8778;DHT22;4425;50.872;4.712;2024-03-07T12:26:06;10.50;99.90
8778;DHT22;4425;50.872;4.712;2024-03-07T12:28:33;10.50;99.90
8778;DHT22;4425;50.872;4.712;2024-03-07T12:31:04;10.30;99.90
8778;DHT22;4425;50.872;4.712;2024-03-07T12:33:32;10.20;99.90
8778;DHT22;4425;50.872;4.712;2024-03-07T12:36:05;10.00;99.90
8778;DHT22;4425;50.872;4.712;2024-03-07T12:38:36;10.20;99.90
8778;DHT22;4425;50.872;4.712;2024-03-07T12:41:07;10.50;99.90
8778;DHT22;4425;50.872;4.712;2024-03-07T12:43:40;10.60;99.90
8778;DHT22;4425;50.872;4.712;2024-03-07T12:46:10;10.60;99.90
8778;DHT22;4425;50.872;4.712;2024-03-07T12:48:39;10.50;99.90
8778;DHT22;4425;50.872;4.712;2024-03-07T12:51:06;10.50;99.90
8778;DHT22;4425;50.872;4.712;2024-03-07T12:53:37;10.60;99.90
8778;DHT22;4425;50.872;4.712;2024-03-07T12:56:04;10.50;99.90
8778;DHT22;4425;50.872;4.712;2024-03-07T12:58:31;10.40;99.90
8778;DHT22;4425;50.872;4.712;2024-03-07T13:00:59;10.10;99.90
8778;DHT22;4425;50.872;4.712;2024-03-07T13:03:26;10.30;99.90
8778;DHT22;4425;50.872;4.712;2024-03-07T13:05:56;10.40;99.90
8778;DHT22;4425;50.872;4.712;2024-03-07T13:08:26;10.70;99.90
8778;DHT22;4425;50.872;4.712;2024-03-07T13:10:56;10.90;99.90
8778;DHT22;4425;50.872;4.712;2024-03-07T13:13:24;11.10;99.90
8778;DHT22;4425;50.872;4.712;2024-03-07T13:15:54;11.30;99.90
8778;DHT22;4425;50.872;4.712;2024-03-07T13:18:22;11.30;99.90
8778;DHT22;4425;50.872;4.712;2024-03-07T13:20:49;11.30;99.90
8778;DHT22;4425;50.872;4.712;2024-03-07T13:23:16;11.20;99.90
8778;DHT22;4425;50.872;4.712;2024-03-07T13:25:44;11.20;99.90
8778;DHT22;4425;50.872;4.712;2024-03-07T13:28:16;11.50;99.90
8778;DHT22;4425;50.872;4.712;2024-03-07T13:30:45;11.60;99.90
8778;DHT22;4425;50.872;4.712;2024-03-07T13:33:14;11.50;99.90
8778;DHT22;4425;50.872;4.712;2024-03-07T13:35:41;11.40;99.90
8778;DHT22;4425;50.872;4.712;2024-03-07T13:38:09;11.40;99.90
8778;DHT22;4425;50.872;4.712;2024-03-07T13:40:36;11.30;99.90
8778;DHT22;4425;50.872;4.712;2024-03-07T13:43:05;11.20;99.90
8778;DHT22;4425;50.872;4.712;2024-03-07T13:45:35;11.20;99.90
8778;DHT22;4425;50.872;4.712;2024-03-07T13:48:06;11.20;99.90
8778;DHT22;4425;50.872;4.712;2024-03-07T13:50:35;11.10;99.90
8778;DHT22;4425;50.872;4.712;2024-03-07T13:53:03;11.10;99.90
8778;DHT22;4425;50.872;4.712;2024-03-07T13:55:54;11.30;99.90
8778;DHT22;4425;50.872;4.712;2024-03-07T13:58:39;11.20;99.90
8778;DHT22;4425;50.872;4.712;2024-03-07T14:01:33;11.00;99.90
8778;DHT22;4425;50.872;4.712;2024-03-07T14:04:44;10.90;99.90
8778;DHT22;4425;50.872;4.712;2024-03-07T14:07:33;11.10;99.90
8778;DHT22;4425;50.872;4.712;2024-03-07T14:10:19;11.00;99.90
8778;DHT22;4425;50.872;4.712;2024-03-07T14:13:13;11.00;99.90
8778;DHT22;4425;50.872;4.712;2024-03-07T14:22:16;10.80;99.90
8778;DHT22;4425;50.872;4.712;2024-03-07T14:25:19;10.90;99.90
8778;DHT22;4425;50.872;4.712;2024-03-07T14:30:45;10.80;99.90
8778;DHT22;4425;50.872;4.712;2024-03-07T14:33:20;10.80;99.90
8778;DHT22;4425;50.872;4.712;2024-03-07T14:36:06;10.90;99.90
8778;DHT22;4425;50.872;4.712;2024-03-07T14:38:48;11.00;99.90
8778;DHT22;4425;50.872;4.712;2024-03-07T14:41:16;11.00;99.90
8778;DHT22;4425;50.872;4.712;2024-03-07T14:43:44;11.00;99.90
8778;DHT22;4425;50.872;4.712;2024-03-07T14:46:14;10.90;99.90
8778;DHT22;4425;50.872;4.712;2024-03-07T14:48:43;11.00;99.90
8778;DHT22;4425;50.872;4.712;2024-03-07T14:51:12;10.90;99.90
8778;DHT22;4425;50.872;4.712;2024-03-07T14:53:40;11.00;99.90
8778;DHT22;4425;50.872;4.712;2024-03-07T14:56:10;11.00;99.90
8778;DHT22;4425;50.872;4.712;2024-03-07T14:58:38;11.00;99.90
8778;DHT22;4425;50.872;4.712;2024-03-07T15:01:05;11.10;99.90
8778;DHT22;4425;50.872;4.712;2024-03-07T15:03:34;11.00;99.90
8778;DHT22;4425;50.872;4.712;2024-03-07T15:06:04;11.00;99.90
8778;DHT22;4425;50.872;4.712;2024-03-07T15:08:34;11.00;99.90
8778;DHT22;4425;50.872;4.712;2024-03-07T15:11:06;11.00;99.90
8778;DHT22;4425;50.872;4.712;2024-03-07T15:13:40;10.90;99.90
8778;DHT22;4425;50.872;4.712;2024-03-07T15:16:09;10.80;99.90
8778;DHT22;4425;50.872;4.712;2024-03-07T15:18:36;10.90;99.90
8778;DHT22;4425;50.872;4.712;2024-03-07T15:21:09;10.80;99.90
8778;DHT22;4425;50.872;4.712;2024-03-07T15:23:41;10.80;99.90
8778;DHT22;4425;50.872;4.712;2024-03-07T15:26:08;10.70;99.90
8778;DHT22;4425;50.872;4.712;2024-03-07T15:28:37;10.70;99.90
8778;DHT22;4425;50.872;4.712;2024-03-07T15:31:06;10.70;99.90
8778;DHT22;4425;50.872;4.712;2024-03-07T15:33:33;10.80;99.90
8778;DHT22;4425;50.872;4.712;2024-03-07T15:36:01;10.90;99.90
8778;DHT22;4425;50.872;4.712;2024-03-07T15:38:31;10.90;99.90
8778;DHT22;4425;50.872;4.712;2024-03-07T15:41:02;10.90;99.90
8778;DHT22;4425;50.872;4.712;2024-03-07T15:43:30;10.90;99.90
8778;DHT22;4425;50.872;4.712;2024-03-07T15:45:57;10.90;99.90
8778;DHT22;4425;50.872;4.712;2024-03-07T15:48:28;10.80;99.90
8778;DHT22;4425;50.872;4.712;2024-03-07T15:50:55;10.80;99.90
8778;DHT22;4425;50.872;4.712;2024-03-07T15:53:23;10.80;99.90
8778;DHT22;4425;50.872;4.712;2024-03-07T15:55:50;10.80;99.90
8778;DHT22;4425;50.872;4.712;2024-03-07T15:58:18;10.90;99.90
8778;DHT22;4425;50.872;4.712;2024-03-07T16:00:45;10.90;99.90
8778;DHT22;4425;50.872;4.712;2024-03-07T16:03:14;10.90;99.90
8778;DHT22;4425;50.872;4.712;2024-03-07T16:05:43;10.80;99.90
8778;DHT22;4425;50.872;4.712;2024-03-07T16:08:13;10.80;99.90
8778;DHT22;4425;50.872;4.712;2024-03-07T16:10:42;10.80;99.90
8778;DHT22;4425;50.872;4.712;2024-03-07T16:13:12;10.70;99.90
8778;DHT22;4425;50.872;4.712;2024-03-07T16:15:40;10.60;99.90
8778;DHT22;4425;50.872;4.712;2024-03-07T16:18:09;10.60;99.90
8778;DHT22;4425;50.872;4.712;2024-03-07T16:20:36;10.60;99.90
8778;DHT22;4425;50.872;4.712;2024-03-07T16:23:05;10.70;99.90
8778;DHT22;4425;50.872;4.712;2024-03-07T16:25:34;10.70;99.90
8778;DHT22;4425;50.872;4.712;2024-03-07T16:28:04;10.60;99.90
8778;DHT22;4425;50.872;4.712;2024-03-07T16:30:32;10.60;99.90
8778;DHT22;4425;50.872;4.712;2024-03-07T16:33:00;10.50;99.90
8778;DHT22;4425;50.872;4.712;2024-03-07T16:35:28;10.50;99.90
8778;DHT22;4425;50.872;4.712;2024-03-07T16:37:57;10.40;99.90
8778;DHT22;4425;50.872;4.712;2024-03-07T16:40:27;10.40;99.90